sensor_id;sensor_type;location;lat;lon;timestamp;P1;durP1;ratioP1;P2;durP2;ratioP2
4652;SDS011;9900;48.738;9.306;2023-06-05T00:01:21;9.87;;;3.87;;
4652;SDS011;9900;48.738;9.306;2023-06-05T00:03:50;4.93;;;3.20;;
4652;SDS011;9900;48.738;9.306;2023-06-05T00:06:20;3.30;;;3.00;;
4652;SDS011;9900;48.738;9.306;2023-06-05T00:08:50;4.80;;;3.40;;
4652;SDS011;9900;48.738;9.306;2023-06-05T00:11:19;3.63;;;3.10;;
4652;SDS011;9900;48.738;9.306;2023-06-05T00:13:49;8.57;;;3.23;;
4652;SDS011;9900;48.738;9.306;2023-06-05T00:16:17;4.87;;;3.07;;
4652;SDS011;9900;48.738;9.306;2023-06-05T00:18:46;5.63;;;3.27;;
4652;SDS011;9900;48.738;9.306;2023-06-05T00:21:15;7.20;;;3.00;;
4652;SDS011;9900;48.738;9.306;2023-06-05T00:23:44;4.80;;;3.27;;
4652;SDS011;9900;48.738;9.306;2023-06-05T00:26:14;4.60;;;2.90;;
4652;SDS011;9900;48.738;9.306;2023-06-05T00:28:42;8.87;;;3.37;;
4652;SDS011;9900;48.738;9.306;2023-06-05T00:31:11;5.40;;;3.40;;
4652;SDS011;9900;48.738;9.306;2023-06-05T00:33:41;4.87;;;2.80;;
4652;SDS011;9900;48.738;9.306;2023-06-05T00:36:09;6.27;;;3.27;;
4652;SDS011;9900;48.738;9.306;2023-06-05T00:38:38;7.53;;;3.17;;
4652;SDS011;9900;48.738;9.306;2023-06-05T00:41:07;7.43;;;3.23;;
4652;SDS011;9900;48.738;9.306;2023-06-05T00:43:37;4.70;;;3.10;;
4652;SDS011;9900;48.738;9.306;2023-06-05T00:46:07;5.53;;;3.20;;
4652;SDS011;9900;48.738;9.306;2023-06-05T00:48:36;6.10;;;2.90;;
4652;SDS011;9900;48.738;9.306;2023-06-05T00:51:04;5.77;;;3.27;;
4652;SDS011;9900;48.738;9.306;2023-06-05T00:53:34;9.03;;;3.50;;
4652;SDS011;9900;48.738;9.306;2023-06-05T00:56:04;6.37;;;3.40;;
4652;SDS011;9900;48.738;9.306;2023-06-05T00:58:33;7.50;;;3.77;;
4652;SDS011;9900;48.738;9.306;2023-06-05T01:01:03;3.33;;;2.83;;
4652;SDS011;9900;48.738;9.306;2023-06-05T01:03:33;7.87;;;3.20;;
4652;SDS011;9900;48.738;9.306;2023-06-05T01:06:02;4.73;;;3.23;;
4652;SDS011;9900;48.738;9.306;2023-06-05T01:08:32;9.20;;;3.00;;
4652;SDS011;9900;48.738;9.306;2023-06-05T01:13:54;3.80;;;3.07;;
4652;SDS011;9900;48.738;9.306;2023-06-05T01:16:26;5.10;;;3.37;;
4652;SDS011;9900;48.738;9.306;2023-06-05T01:18:59;6.57;;;3.37;;
4652;SDS011;9900;48.738;9.306;2023-06-05T01:21:30;6.30;;;3.53;;
4652;SDS011;9900;48.738;9.306;2023-06-05T01:24:00;7.60;;;3.30;;
4652;SDS011;9900;48.738;9.306;2023-06-05T01:26:30;5.40;;;4.10;;
4652;SDS011;9900;48.738;9.306;2023-06-05T01:29:04;5.13;;;3.37;;
4652;SDS011;9900;48.738;9.306;2023-06-05T01:31:35;7.83;;;4.10;;
4652;SDS011;9900;48.738;9.306;2023-06-05T01:34:05;3.83;;;3.20;;
4652;SDS011;9900;48.738;9.306;2023-06-05T01:36:35;10.43;;;3.87;;
4652;SDS011;9900;48.738;9.306;2023-06-05T01:39:06;5.83;;;3.50;;
4652;SDS011;9900;48.738;9.306;2023-06-05T01:41:35;9.47;;;3.87;;
4652;SDS011;9900;48.738;9.306;2023-06-05T01:44:05;5.87;;;3.40;;
4652;SDS011;9900;48.738;9.306;2023-06-05T01:46:35;3.77;;;3.40;;
4652;SDS011;9900;48.738;9.306;2023-06-05T01:49:04;3.63;;;2.73;;
4652;SDS011;9900;48.738;9.306;2023-06-05T01:51:33;3.87;;;3.20;;
4652;SDS011;9900;48.738;9.306;2023-06-05T01:54:02;4.10;;;2.90;;
4652;SDS011;9900;48.738;9.306;2023-06-05T01:56:34;3.60;;;3.23;;
4652;SDS011;9900;48.738;9.306;2023-06-05T01:59:04;7.07;;;2.30;;
4652;SDS011;9900;48.738;9.306;2023-06-05T02:01:34;3.63;;;2.70;;
4652;SDS011;9900;48.738;9.306;2023-06-05T02:04:03;7.73;;;3.00;;
4652;SDS011;9900;48.738;9.306;2023-06-05T02:06:33;3.40;;;2.70;;
4652;SDS011;9900;48.738;9.306;2023-06-05T02:09:09;3.07;;;2.50;;
4652;SDS011;9900;48.738;9.306;2023-06-05T02:11:40;5.27;;;3.37;;
4652;SDS011;9900;48.738;9.306;2023-06-05T02:14:12;3.63;;;2.87;;
4652;SDS011;9900;48.738;9.306;2023-06-05T02:16:42;4.47;;;2.93;;
4652;SDS011;9900;48.738;9.306;2023-06-05T02:19:15;4.37;;;2.37;;
4652;SDS011;9900;48.738;9.306;2023-06-05T02:21:46;10.73;;;2.80;;
4652;SDS011;9900;48.738;9.306;2023-06-05T02:24:14;5.80;;;2.50;;
4652;SDS011;9900;48.738;9.306;2023-06-05T02:26:44;2.93;;;2.63;;
4652;SDS011;9900;48.738;9.306;2023-06-05T02:29:13;4.00;;;3.00;;
4652;SDS011;9900;48.738;9.306;2023-06-05T02:31:42;3.40;;;2.53;;
4652;SDS011;9900;48.738;9.306;2023-06-05T02:34:11;5.70;;;2.63;;
4652;SDS011;9900;48.738;9.306;2023-06-05T02:36:39;3.10;;;2.77;;
4652;SDS011;9900;48.738;9.306;2023-06-05T02:39:09;5.33;;;2.90;;
4652;SDS011;9900;48.738;9.306;2023-06-05T02:41:38;5.30;;;2.93;;
4652;SDS011;9900;48.738;9.306;2023-06-05T02:44:08;4.63;;;3.10;;
4652;SDS011;9900;48.738;9.306;2023-06-05T02:46:37;6.43;;;3.60;;
4652;SDS011;9900;48.738;9.306;2023-06-05T02:49:06;5.87;;;3.20;;
4652;SDS011;9900;48.738;9.306;2023-06-05T02:51:34;4.77;;;3.53;;
4652;SDS011;9900;48.738;9.306;2023-06-05T02:54:03;7.17;;;3.60;;
4652;SDS011;9900;48.738;9.306;2023-06-05T02:56:32;5.07;;;3.87;;
4652;SDS011;9900;48.738;9.306;2023-06-05T02:59:01;10.33;;;3.30;;
4652;SDS011;9900;48.738;9.306;2023-06-05T03:01:32;8.80;;;3.63;;
4652;SDS011;9900;48.738;9.306;2023-06-05T03:04:02;6.70;;;3.40;;
4652;SDS011;9900;48.738;9.306;2023-06-05T03:06:31;5.93;;;3.73;;
4652;SDS011;9900;48.738;9.306;2023-06-05T03:09:00;8.13;;;3.30;;
4652;SDS011;9900;48.738;9.306;2023-06-05T03:11:30;9.23;;;3.67;;
4652;SDS011;9900;48.738;9.306;2023-06-05T03:13:58;7.93;;;3.43;;
4652;SDS011;9900;48.738;9.306;2023-06-05T03:16:27;6.13;;;3.20;;
4652;SDS011;9900;48.738;9.306;2023-06-05T03:19:02;4.73;;;3.80;;
4652;SDS011;9900;48.738;9.306;2023-06-05T03:21:30;5.40;;;3.73;;
4652;SDS011;9900;48.738;9.306;2023-06-05T03:23:59;6.83;;;3.80;;
4652;SDS011;9900;48.738;9.306;2023-06-05T03:26:29;7.07;;;3.90;;
4652;SDS011;9900;48.738;9.306;2023-06-05T03:28:57;7.67;;;3.67;;
4652;SDS011;9900;48.738;9.306;2023-06-05T03:31:26;5.17;;;3.60;;
4652;SDS011;9900;48.738;9.306;2023-06-05T03:33:55;3.80;;;3.30;;
4652;SDS011;9900;48.738;9.306;2023-06-05T03:36:26;7.47;;;3.67;;
4652;SDS011;9900;48.738;9.306;2023-06-05T03:38:56;5.03;;;4.10;;
4652;SDS011;9900;48.738;9.306;2023-06-05T03:41:25;5.57;;;3.47;;
4652;SDS011;9900;48.738;9.306;2023-06-05T03:43:54;5.67;;;3.37;;
4652;SDS011;9900;48.738;9.306;2023-06-05T03:46:24;4.40;;;3.73;;
4652;SDS011;9900;48.738;9.306;2023-06-05T03:48:57;8.30;;;3.40;;
4652;SDS011;9900;48.738;9.306;2023-06-05T03:51:28;6.73;;;3.70;;
4652;SDS011;9900;48.738;9.306;2023-06-05T03:53:57;11.27;;;4.83;;
4652;SDS011;9900;48.738;9.306;2023-06-05T03:56:26;7.00;;;3.73;;
4652;SDS011;9900;48.738;9.306;2023-06-05T03:59:01;8.90;;;4.17;;
4652;SDS011;9900;48.738;9.306;2023-06-05T04:01:36;5.90;;;4.03;;
4652;SDS011;9900;48.738;9.306;2023-06-05T04:04:05;9.83;;;4.07;;
4652;SDS011;9900;48.738;9.306;2023-06-05T04:06:37;9.07;;;4.13;;
4652;SDS011;9900;48.738;9.306;2023-06-05T04:09:07;7.83;;;4.53;;
4652;SDS011;9900;48.738;9.306;2023-06-05T04:11:39;7.67;;;4.20;;
4652;SDS011;9900;48.738;9.306;2023-06-05T04:14:08;10.53;;;3.97;;
4652;SDS011;9900;48.738;9.306;2023-06-05T04:16:38;7.23;;;3.37;;
4652;SDS011;9900;48.738;9.306;2023-06-05T04:19:09;6.37;;;3.97;;
4652;SDS011;9900;48.738;9.306;2023-06-05T04:21:40;6.50;;;3.80;;
4652;SDS011;9900;48.738;9.306;2023-06-05T04:24:09;10.37;;;3.87;;
4652;SDS011;9900;48.738;9.306;2023-06-05T04:26:39;7.80;;;3.90;;
4652;SDS011;9900;48.738;9.306;2023-06-05T04:29:09;7.33;;;4.53;;
4652;SDS011;9900;48.738;9.306;2023-06-05T04:31:41;7.47;;;4.33;;
4652;SDS011;9900;48.738;9.306;2023-06-05T04:34:10;10.40;;;5.23;;
4652;SDS011;9900;48.738;9.306;2023-06-05T04:36:40;8.57;;;4.17;;
4652;SDS011;9900;48.738;9.306;2023-06-05T04:39:09;8.53;;;4.93;;
4652;SDS011;9900;48.738;9.306;2023-06-05T04:41:42;9.30;;;4.23;;
4652;SDS011;9900;48.738;9.306;2023-06-05T04:44:12;12.67;;;5.00;;
4652;SDS011;9900;48.738;9.306;2023-06-05T04:46:43;6.30;;;4.20;;
4652;SDS011;9900;48.738;9.306;2023-06-05T04:49:12;7.80;;;5.20;;
4652;SDS011;9900;48.738;9.306;2023-06-05T04:51:44;8.43;;;5.87;;
4652;SDS011;9900;48.738;9.306;2023-06-05T04:54:13;6.87;;;4.90;;
4652;SDS011;9900;48.738;9.306;2023-06-05T04:56:42;9.00;;;4.47;;
4652;SDS011;9900;48.738;9.306;2023-06-05T04:59:12;10.40;;;4.60;;
4652;SDS011;9900;48.738;9.306;2023-06-05T05:01:42;14.10;;;4.77;;
4652;SDS011;9900;48.738;9.306;2023-06-05T05:04:11;9.10;;;4.57;;
4652;SDS011;9900;48.738;9.306;2023-06-05T05:06:40;6.87;;;4.27;;
4652;SDS011;9900;48.738;9.306;2023-06-05T05:09:15;7.47;;;4.30;;
4652;SDS011;9900;48.738;9.306;2023-06-05T05:11:44;7.27;;;4.30;;
4652;SDS011;9900;48.738;9.306;2023-06-05T05:14:13;11.80;;;4.27;;
4652;SDS011;9900;48.738;9.306;2023-06-05T05:16:42;11.73;;;4.93;;
4652;SDS011;9900;48.738;9.306;2023-06-05T05:19:11;7.53;;;4.60;;
4652;SDS011;9900;48.738;9.306;2023-06-05T05:21:39;6.73;;;4.10;;
4652;SDS011;9900;48.738;9.306;2023-06-05T05:24:08;10.27;;;4.60;;
4652;SDS011;9900;48.738;9.306;2023-06-05T05:26:38;9.50;;;5.10;;
4652;SDS011;9900;48.738;9.306;2023-06-05T05:29:07;10.20;;;5.30;;
4652;SDS011;9900;48.738;9.306;2023-06-05T05:31:36;7.63;;;4.83;;
4652;SDS011;9900;48.738;9.306;2023-06-05T05:34:05;10.83;;;4.53;;
4652;SDS011;9900;48.738;9.306;2023-06-05T05:36:33;11.77;;;5.27;;
4652;SDS011;9900;48.738;9.306;2023-06-05T05:39:03;5.33;;;4.33;;
4652;SDS011;9900;48.738;9.306;2023-06-05T05:41:34;9.93;;;4.63;;
4652;SDS011;9900;48.738;9.306;2023-06-05T05:44:04;12.57;;;4.37;;
4652;SDS011;9900;48.738;9.306;2023-06-05T05:46:33;8.37;;;5.30;;
4652;SDS011;9900;48.738;9.306;2023-06-05T05:49:01;9.57;;;5.00;;
4652;SDS011;9900;48.738;9.306;2023-06-05T05:51:30;22.30;;;6.13;;
4652;SDS011;9900;48.738;9.306;2023-06-05T05:54:00;9.60;;;5.17;;
4652;SDS011;9900;48.738;9.306;2023-06-05T05:56:29;15.13;;;4.93;;
4652;SDS011;9900;48.738;9.306;2023-06-05T05:58:58;9.50;;;4.67;;
4652;SDS011;9900;48.738;9.306;2023-06-05T06:01:28;6.93;;;4.73;;
4652;SDS011;9900;48.738;9.306;2023-06-05T06:03:57;17.53;;;5.83;;
4652;SDS011;9900;48.738;9.306;2023-06-05T06:06:25;12.77;;;5.13;;
4652;SDS011;9900;48.738;9.306;2023-06-05T06:08:55;7.10;;;4.63;;
4652;SDS011;9900;48.738;9.306;2023-06-05T06:11:23;5.90;;;4.67;;
4652;SDS011;9900;48.738;9.306;2023-06-05T06:13:54;7.50;;;5.30;;
4652;SDS011;9900;48.738;9.306;2023-06-05T06:16:22;10.70;;;4.70;;
4652;SDS011;9900;48.738;9.306;2023-06-05T06:18:54;10.83;;;5.00;;
4652;SDS011;9900;48.738;9.306;2023-06-05T06:21:25;11.10;;;5.23;;
4652;SDS011;9900;48.738;9.306;2023-06-05T06:23:54;6.83;;;3.90;;
4652;SDS011;9900;48.738;9.306;2023-06-05T06:26:23;12.03;;;4.77;;
4652;SDS011;9900;48.738;9.306;2023-06-05T06:28:54;17.63;;;4.87;;
4652;SDS011;9900;48.738;9.306;2023-06-05T06:31:24;7.37;;;4.53;;
4652;SDS011;9900;48.738;9.306;2023-06-05T06:33:55;12.80;;;4.97;;
4652;SDS011;9900;48.738;9.306;2023-06-05T06:36:23;9.50;;;4.77;;
4652;SDS011;9900;48.738;9.306;2023-06-05T06:38:53;13.03;;;4.67;;
4652;SDS011;9900;48.738;9.306;2023-06-05T06:41:23;6.10;;;4.13;;
4652;SDS011;9900;48.738;9.306;2023-06-05T06:43:53;16.77;;;5.67;;
4652;SDS011;9900;48.738;9.306;2023-06-05T06:46:22;7.07;;;4.27;;
4652;SDS011;9900;48.738;9.306;2023-06-05T06:48:51;11.30;;;4.53;;
4652;SDS011;9900;48.738;9.306;2023-06-05T06:51:21;11.90;;;4.77;;
4652;SDS011;9900;48.738;9.306;2023-06-05T06:53:50;9.57;;;5.47;;
4652;SDS011;9900;48.738;9.306;2023-06-05T06:56:19;10.07;;;4.30;;
4652;SDS011;9900;48.738;9.306;2023-06-05T06:58:47;10.07;;;4.37;;
4652;SDS011;9900;48.738;9.306;2023-06-05T07:01:16;11.53;;;4.43;;
4652;SDS011;9900;48.738;9.306;2023-06-05T07:03:47;15.83;;;4.50;;
4652;SDS011;9900;48.738;9.306;2023-06-05T07:06:15;7.20;;;3.73;;
4652;SDS011;9900;48.738;9.306;2023-06-05T07:08:45;7.63;;;4.43;;
4652;SDS011;9900;48.738;9.306;2023-06-05T07:11:14;7.50;;;3.60;;
4652;SDS011;9900;48.738;9.306;2023-06-05T07:13:43;7.50;;;3.87;;
4652;SDS011;9900;48.738;9.306;2023-06-05T07:16:11;12.37;;;4.70;;
4652;SDS011;9900;48.738;9.306;2023-06-05T07:18:40;13.23;;;4.30;;
4652;SDS011;9900;48.738;9.306;2023-06-05T07:21:09;14.43;;;4.20;;
4652;SDS011;9900;48.738;9.306;2023-06-05T07:23:38;10.70;;;4.40;;
4652;SDS011;9900;48.738;9.306;2023-06-05T07:26:08;8.27;;;4.70;;
4652;SDS011;9900;48.738;9.306;2023-06-05T07:28:37;8.33;;;3.90;;
4652;SDS011;9900;48.738;9.306;2023-06-05T07:31:06;5.07;;;3.83;;
4652;SDS011;9900;48.738;9.306;2023-06-05T07:33:35;10.13;;;4.57;;
4652;SDS011;9900;48.738;9.306;2023-06-05T07:36:04;9.30;;;3.60;;
4652;SDS011;9900;48.738;9.306;2023-06-05T07:38:33;6.30;;;3.70;;
4652;SDS011;9900;48.738;9.306;2023-06-05T07:41:02;7.63;;;3.47;;
4652;SDS011;9900;48.738;9.306;2023-06-05T07:43:32;11.00;;;4.57;;
4652;SDS011;9900;48.738;9.306;2023-06-05T07:46:01;7.03;;;3.67;;
4652;SDS011;9900;48.738;9.306;2023-06-05T07:48:31;8.27;;;3.40;;
4652;SDS011;9900;48.738;9.306;2023-06-05T07:51:01;7.67;;;4.03;;
4652;SDS011;9900;48.738;9.306;2023-06-05T07:53:30;9.60;;;3.53;;
4652;SDS011;9900;48.738;9.306;2023-06-05T07:55:58;5.93;;;3.53;;
4652;SDS011;9900;48.738;9.306;2023-06-05T07:58:27;6.40;;;3.93;;
4652;SDS011;9900;48.738;9.306;2023-06-05T08:00:58;6.57;;;3.83;;
4652;SDS011;9900;48.738;9.306;2023-06-05T08:03:26;8.10;;;3.70;;
4652;SDS011;9900;48.738;9.306;2023-06-05T08:05:55;11.00;;;3.87;;
4652;SDS011;9900;48.738;9.306;2023-06-05T08:08:24;8.53;;;4.30;;
4652;SDS011;9900;48.738;9.306;2023-06-05T08:10:53;9.53;;;3.80;;
4652;SDS011;9900;48.738;9.306;2023-06-05T08:13:22;10.40;;;3.80;;
4652;SDS011;9900;48.738;9.306;2023-06-05T08:15:51;6.63;;;4.03;;
4652;SDS011;9900;48.738;9.306;2023-06-05T08:18:21;6.40;;;3.60;;
4652;SDS011;9900;48.738;9.306;2023-06-05T08:20:50;4.50;;;3.50;;
4652;SDS011;9900;48.738;9.306;2023-06-05T08:23:18;4.80;;;3.40;;
4652;SDS011;9900;48.738;9.306;2023-06-05T08:25:47;3.83;;;3.30;;
4652;SDS011;9900;48.738;9.306;2023-06-05T08:28:17;8.63;;;4.00;;
4652;SDS011;9900;48.738;9.306;2023-06-05T08:30:45;5.93;;;3.80;;
4652;SDS011;9900;48.738;9.306;2023-06-05T08:33:14;9.93;;;3.60;;
4652;SDS011;9900;48.738;9.306;2023-06-05T08:35:47;5.10;;;3.63;;
4652;SDS011;9900;48.738;9.306;2023-06-05T08:38:16;5.53;;;3.50;;
4652;SDS011;9900;48.738;9.306;2023-06-05T08:40:44;3.30;;;3.00;;
4652;SDS011;9900;48.738;9.306;2023-06-05T08:43:18;7.47;;;4.20;;
4652;SDS011;9900;48.738;9.306;2023-06-05T08:45:48;4.03;;;3.50;;
4652;SDS011;9900;48.738;9.306;2023-06-05T08:48:18;4.63;;;3.50;;
4652;SDS011;9900;48.738;9.306;2023-06-05T08:50:50;4.17;;;3.30;;
4652;SDS011;9900;48.738;9.306;2023-06-05T08:53:19;7.40;;;4.00;;
4652;SDS011;9900;48.738;9.306;2023-06-05T08:55:51;6.60;;;4.00;;
4652;SDS011;9900;48.738;9.306;2023-06-05T08:58:22;6.50;;;4.10;;
4652;SDS011;9900;48.738;9.306;2023-06-05T09:00:51;4.10;;;3.53;;
4652;SDS011;9900;48.738;9.306;2023-06-05T09:03:20;7.50;;;4.30;;
4652;SDS011;9900;48.738;9.306;2023-06-05T09:05:50;4.73;;;3.70;;
4652;SDS011;9900;48.738;9.306;2023-06-05T09:08:27;9.77;;;4.37;;
4652;SDS011;9900;48.738;9.306;2023-06-05T09:13:53;9.80;;;3.93;;
4652;SDS011;9900;48.738;9.306;2023-06-05T09:16:31;5.60;;;4.33;;
4652;SDS011;9900;48.738;9.306;2023-06-05T09:19:01;9.23;;;3.90;;
4652;SDS011;9900;48.738;9.306;2023-06-05T09:21:32;6.53;;;3.53;;
4652;SDS011;9900;48.738;9.306;2023-06-05T09:24:11;4.73;;;3.63;;
4652;SDS011;9900;48.738;9.306;2023-06-05T09:26:49;5.13;;;4.10;;
4652;SDS011;9900;48.738;9.306;2023-06-05T09:29:24;10.37;;;4.63;;
4652;SDS011;9900;48.738;9.306;2023-06-05T09:31:54;5.00;;;4.30;;
4652;SDS011;9900;48.738;9.306;2023-06-05T09:34:25;8.13;;;4.60;;
4652;SDS011;9900;48.738;9.306;2023-06-05T09:36:56;7.70;;;4.17;;
4652;SDS011;9900;48.738;9.306;2023-06-05T09:39:26;6.00;;;3.83;;
4652;SDS011;9900;48.738;9.306;2023-06-05T09:41:56;6.00;;;4.03;;
4652;SDS011;9900;48.738;9.306;2023-06-05T09:44:26;5.03;;;3.90;;
4652;SDS011;9900;48.738;9.306;2023-06-05T09:46:56;6.03;;;3.50;;
4652;SDS011;9900;48.738;9.306;2023-06-05T09:49:27;8.23;;;3.80;;
4652;SDS011;9900;48.738;9.306;2023-06-05T09:51:59;8.63;;;3.83;;
4652;SDS011;9900;48.738;9.306;2023-06-05T09:54:29;10.17;;;3.77;;
4652;SDS011;9900;48.738;9.306;2023-06-05T09:57:00;7.47;;;3.90;;
4652;SDS011;9900;48.738;9.306;2023-06-05T09:59:30;5.53;;;3.40;;
4652;SDS011;9900;48.738;9.306;2023-06-05T10:02:00;10.60;;;3.93;;
4652;SDS011;9900;48.738;9.306;2023-06-05T10:04:32;6.80;;;4.40;;
4652;SDS011;9900;48.738;9.306;2023-06-05T10:07:08;4.20;;;3.80;;
4652;SDS011;9900;48.738;9.306;2023-06-05T10:09:37;4.60;;;3.60;;
4652;SDS011;9900;48.738;9.306;2023-06-05T10:12:07;4.30;;;3.50;;
4652;SDS011;9900;48.738;9.306;2023-06-05T10:14:41;8.60;;;4.23;;
4652;SDS011;9900;48.738;9.306;2023-06-05T10:17:11;4.67;;;3.67;;
4652;SDS011;9900;48.738;9.306;2023-06-05T10:19:41;6.00;;;4.13;;
4652;SDS011;9900;48.738;9.306;2023-06-05T10:22:11;3.90;;;3.23;;
4652;SDS011;9900;48.738;9.306;2023-06-05T10:24:41;9.43;;;3.73;;
4652;SDS011;9900;48.738;9.306;2023-06-05T10:27:19;5.80;;;3.80;;
4652;SDS011;9900;48.738;9.306;2023-06-05T10:30:15;9.23;;;3.20;;
4652;SDS011;9900;48.738;9.306;2023-06-05T10:33:07;8.50;;;4.30;;
4652;SDS011;9900;48.738;9.306;2023-06-05T10:35:50;5.90;;;3.70;;
4652;SDS011;9900;48.738;9.306;2023-06-05T10:38:29;9.07;;;4.00;;
4652;SDS011;9900;48.738;9.306;2023-06-05T10:40:59;5.30;;;3.30;;
4652;SDS011;9900;48.738;9.306;2023-06-05T10:43:30;6.27;;;4.13;;
4652;SDS011;9900;48.738;9.306;2023-06-05T10:46:00;4.80;;;4.20;;
4652;SDS011;9900;48.738;9.306;2023-06-05T10:51:40;5.27;;;3.47;;
4652;SDS011;9900;48.738;9.306;2023-06-05T10:54:12;6.00;;;3.20;;
4652;SDS011;9900;48.738;9.306;2023-06-05T10:56:54;7.23;;;3.70;;
4652;SDS011;9900;48.738;9.306;2023-06-05T10:59:26;4.00;;;3.40;;
4652;SDS011;9900;48.738;9.306;2023-06-05T11:05:06;6.53;;;3.10;;
4652;SDS011;9900;48.738;9.306;2023-06-05T11:07:38;3.77;;;3.20;;
4652;SDS011;9900;48.738;9.306;2023-06-05T11:10:13;4.10;;;3.00;;
4652;SDS011;9900;48.738;9.306;2023-06-05T11:12:55;8.73;;;3.40;;
4652;SDS011;9900;48.738;9.306;2023-06-05T11:15:34;7.00;;;3.07;;
4652;SDS011;9900;48.738;9.306;2023-06-05T11:51:38;4.43;;;2.90;;
4652;SDS011;9900;48.738;9.306;2023-06-05T11:54:07;4.70;;;3.47;;
4652;SDS011;9900;48.738;9.306;2023-06-05T11:56:42;4.63;;;3.60;;
4652;SDS011;9900;48.738;9.306;2023-06-05T11:59:17;6.00;;;3.13;;
4652;SDS011;9900;48.738;9.306;2023-06-05T12:01:46;4.80;;;3.77;;
4652;SDS011;9900;48.738;9.306;2023-06-05T12:04:18;5.43;;;3.40;;
4652;SDS011;9900;48.738;9.306;2023-06-05T12:06:47;5.43;;;3.60;;
4652;SDS011;9900;48.738;9.306;2023-06-05T12:09:19;3.60;;;3.30;;
4652;SDS011;9900;48.738;9.306;2023-06-05T12:11:48;4.83;;;3.40;;
4652;SDS011;9900;48.738;9.306;2023-06-05T12:14:30;5.13;;;3.20;;
4652;SDS011;9900;48.738;9.306;2023-06-05T12:17:00;5.30;;;3.67;;
4652;SDS011;9900;48.738;9.306;2023-06-05T12:19:31;3.60;;;3.30;;
4652;SDS011;9900;48.738;9.306;2023-06-05T12:22:01;6.40;;;3.40;;
4652;SDS011;9900;48.738;9.306;2023-06-05T12:24:32;4.80;;;3.13;;
4652;SDS011;9900;48.738;9.306;2023-06-05T12:27:01;3.40;;;3.10;;
4652;SDS011;9900;48.738;9.306;2023-06-05T12:29:32;4.07;;;3.50;;
4652;SDS011;9900;48.738;9.306;2023-06-05T12:32:02;8.30;;;3.90;;
4652;SDS011;9900;48.738;9.306;2023-06-05T12:34:40;3.47;;;3.17;;
4652;SDS011;9900;48.738;9.306;2023-06-05T12:37:23;4.87;;;3.70;;
4652;SDS011;9900;48.738;9.306;2023-06-05T12:39:55;4.30;;;3.47;;
4652;SDS011;9900;48.738;9.306;2023-06-05T12:42:25;13.87;;;4.20;;
4652;SDS011;9900;48.738;9.306;2023-06-05T12:44:54;5.40;;;3.07;;
4652;SDS011;9900;48.738;9.306;2023-06-05T12:47:23;8.43;;;3.63;;
4652;SDS011;9900;48.738;9.306;2023-06-05T12:49:54;6.60;;;3.40;;
4652;SDS011;9900;48.738;9.306;2023-06-05T12:52:24;5.97;;;3.10;;
4652;SDS011;9900;48.738;9.306;2023-06-05T12:54:54;4.40;;;3.10;;
4652;SDS011;9900;48.738;9.306;2023-06-05T12:57:23;4.47;;;3.13;;
4652;SDS011;9900;48.738;9.306;2023-06-05T12:59:53;4.90;;;3.30;;
4652;SDS011;9900;48.738;9.306;2023-06-05T13:02:23;7.03;;;3.60;;
4652;SDS011;9900;48.738;9.306;2023-06-05T13:04:54;7.93;;;3.27;;
4652;SDS011;9900;48.738;9.306;2023-06-05T13:07:22;5.80;;;3.80;;
4652;SDS011;9900;48.738;9.306;2023-06-05T13:09:52;3.90;;;3.43;;
4652;SDS011;9900;48.738;9.306;2023-06-05T13:12:22;4.63;;;3.67;;
4652;SDS011;9900;48.738;9.306;2023-06-05T13:14:51;6.63;;;4.40;;
4652;SDS011;9900;48.738;9.306;2023-06-05T13:17:20;6.80;;;3.70;;
4652;SDS011;9900;48.738;9.306;2023-06-05T13:19:50;5.33;;;3.40;;
4652;SDS011;9900;48.738;9.306;2023-06-05T13:22:20;4.60;;;3.53;;
4652;SDS011;9900;48.738;9.306;2023-06-05T13:24:49;4.50;;;3.90;;
4652;SDS011;9900;48.738;9.306;2023-06-05T13:27:18;7.10;;;4.17;;
4652;SDS011;9900;48.738;9.306;2023-06-05T13:29:48;5.63;;;3.70;;
4652;SDS011;9900;48.738;9.306;2023-06-05T13:32:17;4.20;;;3.30;;
4652;SDS011;9900;48.738;9.306;2023-06-05T13:34:46;5.27;;;3.30;;
4652;SDS011;9900;48.738;9.306;2023-06-05T13:37:15;7.03;;;4.20;;
4652;SDS011;9900;48.738;9.306;2023-06-05T13:39:46;5.03;;;3.70;;
4652;SDS011;9900;48.738;9.306;2023-06-05T13:42:14;4.73;;;4.27;;
4652;SDS011;9900;48.738;9.306;2023-06-05T13:44:43;6.13;;;3.67;;
4652;SDS011;9900;48.738;9.306;2023-06-05T13:47:12;5.60;;;3.80;;
4652;SDS011;9900;48.738;9.306;2023-06-05T13:49:41;8.73;;;3.83;;
4652;SDS011;9900;48.738;9.306;2023-06-05T13:52:10;4.70;;;3.93;;
4652;SDS011;9900;48.738;9.306;2023-06-05T13:54:38;5.20;;;4.07;;
4652;SDS011;9900;48.738;9.306;2023-06-05T13:57:10;5.20;;;4.17;;
4652;SDS011;9900;48.738;9.306;2023-06-05T13:59:39;5.17;;;4.67;;
4652;SDS011;9900;48.738;9.306;2023-06-05T14:02:10;4.30;;;3.90;;
4652;SDS011;9900;48.738;9.306;2023-06-05T14:04:40;4.40;;;3.67;;
4652;SDS011;9900;48.738;9.306;2023-06-05T14:07:09;5.83;;;3.40;;
4652;SDS011;9900;48.738;9.306;2023-06-05T14:09:37;4.90;;;3.50;;
4652;SDS011;9900;48.738;9.306;2023-06-05T14:12:07;8.50;;;3.90;;
4652;SDS011;9900;48.738;9.306;2023-06-05T14:14:38;5.20;;;3.40;;
4652;SDS011;9900;48.738;9.306;2023-06-05T14:17:07;4.13;;;3.63;;
4652;SDS011;9900;48.738;9.306;2023-06-05T14:19:36;7.30;;;3.87;;
4652;SDS011;9900;48.738;9.306;2023-06-05T14:22:05;5.80;;;3.90;;
4652;SDS011;9900;48.738;9.306;2023-06-05T14:24:35;6.83;;;4.03;;
4652;SDS011;9900;48.738;9.306;2023-06-05T14:27:04;5.63;;;3.70;;
4652;SDS011;9900;48.738;9.306;2023-06-05T14:29:33;5.70;;;3.73;;
4652;SDS011;9900;48.738;9.306;2023-06-05T14:32:04;5.70;;;4.07;;
4652;SDS011;9900;48.738;9.306;2023-06-05T14:34:34;6.47;;;3.70;;
4652;SDS011;9900;48.738;9.306;2023-06-05T14:37:03;7.43;;;4.30;;
4652;SDS011;9900;48.738;9.306;2023-06-05T14:39:32;4.67;;;4.17;;
4652;SDS011;9900;48.738;9.306;2023-06-05T14:42:01;4.63;;;3.67;;
4652;SDS011;9900;48.738;9.306;2023-06-05T14:44:29;4.60;;;3.60;;
4652;SDS011;9900;48.738;9.306;2023-06-05T14:46:58;5.37;;;4.20;;
4652;SDS011;9900;48.738;9.306;2023-06-05T14:49:28;11.13;;;3.80;;
4652;SDS011;9900;48.738;9.306;2023-06-05T14:51:57;5.70;;;3.70;;
4652;SDS011;9900;48.738;9.306;2023-06-05T14:54:26;5.70;;;4.20;;
4652;SDS011;9900;48.738;9.306;2023-06-05T14:56:55;6.20;;;3.40;;
4652;SDS011;9900;48.738;9.306;2023-06-05T14:59:24;4.93;;;3.60;;
4652;SDS011;9900;48.738;9.306;2023-06-05T15:01:54;4.10;;;3.70;;
4652;SDS011;9900;48.738;9.306;2023-06-05T15:04:24;4.50;;;3.93;;
4652;SDS011;9900;48.738;9.306;2023-06-05T15:06:56;4.50;;;3.87;;
4652;SDS011;9900;48.738;9.306;2023-06-05T15:09:25;7.10;;;3.30;;
4652;SDS011;9900;48.738;9.306;2023-06-05T15:11:54;9.70;;;3.90;;
4652;SDS011;9900;48.738;9.306;2023-06-05T15:14:23;6.43;;;3.53;;
4652;SDS011;9900;48.738;9.306;2023-06-05T15:16:52;5.73;;;4.10;;
4652;SDS011;9900;48.738;9.306;2023-06-05T15:19:21;4.90;;;3.87;;
4652;SDS011;9900;48.738;9.306;2023-06-05T15:21:49;6.10;;;3.80;;
4652;SDS011;9900;48.738;9.306;2023-06-05T15:24:20;5.43;;;3.60;;
4652;SDS011;9900;48.738;9.306;2023-06-05T15:26:48;4.60;;;3.77;;
4652;SDS011;9900;48.738;9.306;2023-06-05T15:29:17;6.60;;;3.57;;
4652;SDS011;9900;48.738;9.306;2023-06-05T15:31:47;4.60;;;3.23;;
4652;SDS011;9900;48.738;9.306;2023-06-05T15:34:16;4.80;;;3.40;;
4652;SDS011;9900;48.738;9.306;2023-06-05T15:36:45;4.90;;;3.57;;
4652;SDS011;9900;48.738;9.306;2023-06-05T15:39:14;4.70;;;3.70;;
4652;SDS011;9900;48.738;9.306;2023-06-05T15:41:45;3.50;;;3.20;;
4652;SDS011;9900;48.738;9.306;2023-06-05T15:44:14;5.70;;;3.47;;
4652;SDS011;9900;48.738;9.306;2023-06-05T15:46:43;5.33;;;3.40;;
4652;SDS011;9900;48.738;9.306;2023-06-05T15:49:13;4.70;;;3.60;;
4652;SDS011;9900;48.738;9.306;2023-06-05T15:51:41;5.50;;;3.83;;
4652;SDS011;9900;48.738;9.306;2023-06-05T15:54:10;5.47;;;3.97;;
4652;SDS011;9900;48.738;9.306;2023-06-05T15:57:05;4.50;;;3.50;;
4652;SDS011;9900;48.738;9.306;2023-06-05T15:59:35;5.13;;;3.43;;
4652;SDS011;9900;48.738;9.306;2023-06-05T16:02:04;3.00;;;2.80;;
4652;SDS011;9900;48.738;9.306;2023-06-05T16:04:33;4.70;;;3.63;;
4652;SDS011;9900;48.738;9.306;2023-06-05T16:07:02;5.37;;;3.60;;
4652;SDS011;9900;48.738;9.306;2023-06-05T16:09:31;4.23;;;3.40;;
4652;SDS011;9900;48.738;9.306;2023-06-05T16:11:59;4.73;;;3.60;;
4652;SDS011;9900;48.738;9.306;2023-06-05T16:14:30;4.63;;;3.10;;
4652;SDS011;9900;48.738;9.306;2023-06-05T16:16:58;3.53;;;3.20;;